• Join FlightAware (Why Join?)
  • Login
  • US Flag 
06:16AM EDT


 

Airport Tracker/Info


-or-


 

Live Flight TrackerFlight Track Log ✈ JBU1089 ✈ 21-Nov-2013 ✈ KBOS - KDCA

Flight Track Log - Related Links

Times and Time Zones

All times are in EST time to prevent confusion due to time zone crossing. See the JBU1089 flight status page for this flight to view local times or setup timezone preferences in your user account.

Time Position Orientation Groundspeed Altitude Reporting Facility
EST Latitude Longitude Course Direction KTS MPH feet Rate Location/Type
08:08PM 42.3500 -71.0167 144° Southeast 139 160 600  Level KA90
08:08PM 42.3333 -71.0000 144° Southeast 190 219 1,800 1,800 Climbing KA90
08:09PM 42.3000 -70.9333 124° Southeast 251 289 3,500 2,400 Climbing KA90
08:10PM 42.3303 -70.8292 69° East 277 319 7,000 2,640 Climbing Boston Center
08:12PM 42.3089 -70.7358 107° East 288 331 9,600 2,280 Climbing Boston Center
08:13PM 42.2294 -70.7261 175° South 299 344 11,700 2,400 Climbing Boston Center
08:14PM 42.1642 -70.8308 230° Southwest 331 381 14,500 2,760 Climbing Boston Center
08:15PM 42.1478 -70.9619 260° West 336 387 17,400 2,220 Climbing Boston Center
08:16PM 42.1358 -71.0836 262° West 342 394 19,100 1,740 Climbing Boston Center
08:17PM 42.1247 -71.1950 262° West 342 394 21,000 1,980 Climbing Boston Center
08:18PM 42.1061 -71.3550 261° West 360 414 23,200 1,860 Climbing Boston Center
08:19PM 42.0892 -71.4931 261° West 372 428 24,900 1,560 Climbing Boston Center
08:20PM 42.0722 -71.6347 261° West 383 441 26,400 1,380 Climbing Boston Center
08:21PM 42.0553 -71.7786 261° West 390 449 27,800 1,440 Climbing Boston Center
08:22PM 42.0375 -71.9247 261° West 395 455 29,400 1,380 Climbing Boston Center
08:23PM 42.0003 -72.0631 250° West 402 463 30,700 1,260 Climbing Boston Center
08:24PM 41.9389 -72.1933 238° Southwest 411 473 32,000 600 Climbing Boston Center
08:25PM 41.8772 -72.3258 238° Southwest 417 480 32,000  Level Boston Center
08:26PM 41.8131 -72.4614 238° Southwest 427 491 32,000  Level Boston Center
08:27PM 41.7506 -72.5947 238° Southwest 424 488 32,000  Level Boston Center
08:28PM 41.6875 -72.7300 238° Southwest 427 491 32,000  Level Boston Center
08:29PM 41.6253 -72.8619 238° Southwest 421 484 32,000  Level Boston Center
08:30PM 41.5614 -72.9939 237° Southwest 422 486 32,000  Level Boston Center
08:31PM 41.4992 -73.1306 239° Southwest 424 488 32,000  Level Boston Center
08:32PM 41.4247 -73.2864 238° Southwest 420 483 32,000  Level Boston Center
08:33PM 41.3606 -73.4164 237° Southwest 422 486 32,000  Level Boston Center
08:34PM 41.2975 -73.5472 237° Southwest 422 486 32,000  Level Boston Center
08:35PM 41.2267 -73.6731 233° Southwest 426 490 32,000  Level Boston Center
08:35PM 41.1844 -73.7486 233° Southwest 430 495 32,000  Level New York Center
08:36PM 41.1061 -73.8744 230° Southwest 436 502 32,000  Level New York Center
08:37PM 41.0342 -73.9978 232° Southwest 436 502 32,000  Level New York Center
08:38PM 40.9600 -74.1206 231° Southwest 436 502 32,000 -1,020 Level New York Center
08:39PM 40.8856 -74.2403 231° Southwest 431 496 30,000 -1,920 Descending New York Center
08:40PM 40.8133 -74.3628 232° Southwest 431 496 28,200 -1,680 Descending New York Center
08:41PM 40.7431 -74.4797 232° Southwest 431 496 26,700 -1,500 Descending New York Center
08:42PM 40.6725 -74.5961 231° Southwest 426 490 25,200 -1,140 Descending New York Center
08:43PM 40.6042 -74.7100 232° Southwest 420 483 24,500 -720 Descending New York Center
08:44PM 40.5319 -74.8178 229° Southwest 410 472 23,800 -720 Descending New York Center
08:45PM 40.4594 -74.9197 227° Southwest 404 465 23,100 -720 Descending New York Center
08:46PM 40.3850 -75.0244 227° Southwest 398 458 22,400 -720 Descending New York Center
08:47PM 40.3103 -75.1258 226° Southwest 398 458 21,700 -720 Descending New York Center
08:48PM 40.2397 -75.2275 228° Southwest 393 452 21,000 -720 Descending New York Center
08:49PM 40.1672 -75.3314 228° Southwest 393 452 20,300 -540 Descending New York Center
08:50PM 40.0986 -75.4275 227° Southwest 387 445 20,000 -180 Descending New York Center
08:51PM 40.0261 -75.5256 226° Southwest 382 440 20,000  Level New York Center
08:52PM 39.9556 -75.6211 226° Southwest 382 440 20,000  Level New York Center
08:53PM 39.8928 -75.7250 232° Southwest 382 440 20,000  Level New York Center
08:54PM 39.8300 -75.8258 231° Southwest 375 432 20,000 -540 Level New York Center
08:57PM 39.6667 -76.0833 231° Southwest 354 407 18,300 -1,020 Descending Potomac TRACON
08:58PM 39.6000 -76.1833 229° Southwest 349 402 16,500 -1,800 Descending Potomac TRACON
08:59PM 39.5500 -76.2667 232° Southwest 339 390 14,900 -1,740 Descending Potomac TRACON
09:00PM 39.4833 -76.3667 229° Southwest 314 361 13,000 -1,680 Descending Potomac TRACON
09:01PM 39.4333 -76.4333 226° Southwest 292 336 11,500 -1,500 Descending Potomac TRACON
09:02PM 39.3667 -76.4833 210° Southwest 281 323 10,100 -720 Descending Potomac TRACON
09:03PM 39.3000 -76.5500 218° Southwest 275 316 10,100  Level Potomac TRACON
09:04PM 39.2333 -76.6000 210° Southwest 274 315 10,100 -60 Level Potomac TRACON
09:05PM 39.1833 -76.6500 218° Southwest 277 319 10,000 -60 Descending Potomac TRACON
09:06PM 39.1167 -76.7167 218° Southwest 275 316 10,000 -120 Level Potomac TRACON
09:07PM 39.0667 -76.7833 226° Southwest 273 314 9,800 -960 Descending Potomac TRACON
09:08PM 39.0000 -76.8500 218° Southwest 272 313 8,100 -1,620 Descending Potomac TRACON
09:09PM 38.9500 -76.9167 226° Southwest 261 300 6,600 -1,080 Descending Potomac TRACON
09:10PM 38.8833 -76.9500 201° Southwest 269 310 6,000 -960 Descending Potomac TRACON
09:11PM 38.8000 -76.9500 180° South 263 303 4,600 -1,020 Descending Potomac TRACON
09:12PM 38.7500 -76.9333 165° South 232 267 4,000 -300 Descending Potomac TRACON
09:13PM 38.6833 -76.9333 180° South 167 192 4,000 -480 Level Potomac TRACON
09:14PM 38.6833 -76.9833 270° West 160 184 3,100 -900 Descending Potomac TRACON
09:15PM 38.7167 -77.0167 322° Northwest 184 212 2,400 -720 Descending Potomac TRACON
09:16PM 38.7667 -77.0333 345° North 189 217 1,700 -840 Descending Potomac TRACON
09:17PM 38.8000 -77.0333 360° North 151 174 800 -960 Descending Potomac TRACON
09:19PM 38.8500 -77.0333 343° North  Level FlightAware Approximate